sensor_id;sensor_type;location;lat;lon;timestamp;P1;durP1;ratioP1;P2;durP2;ratioP2
14139;SDS011;7150;53.514;9.988;2022-12-24T00:07:26;22.60;;;9.57;;
14139;SDS011;7150;53.514;9.988;2022-12-24T00:09:51;26.03;;;9.63;;
14139;SDS011;7150;53.514;9.988;2022-12-24T00:12:17;26.27;;;11.30;;
14139;SDS011;7150;53.514;9.988;2022-12-24T00:14:42;25.20;;;11.20;;
14139;SDS011;7150;53.514;9.988;2022-12-24T00:17:08;22.33;;;10.23;;
14139;SDS011;7150;53.514;9.988;2022-12-24T00:19:33;23.47;;;11.07;;
14139;SDS011;7150;53.514;9.988;2022-12-24T00:21:58;21.80;;;10.23;;
14139;SDS011;7150;53.514;9.988;2022-12-24T00:24:24;22.83;;;10.07;;
14139;SDS011;7150;53.514;9.988;2022-12-24T00:26:49;21.47;;;11.03;;
14139;SDS011;7150;53.514;9.988;2022-12-24T00:29:15;24.67;;;10.97;;
14139;SDS011;7150;53.514;9.988;2022-12-24T00:31:40;20.93;;;10.30;;
14139;SDS011;7150;53.514;9.988;2022-12-24T00:34:06;24.33;;;10.80;;
14139;SDS011;7150;53.514;9.988;2022-12-24T00:36:32;24.07;;;10.53;;
14139;SDS011;7150;53.514;9.988;2022-12-24T00:38:58;20.10;;;9.07;;
14139;SDS011;7150;53.514;9.988;2022-12-24T00:41:23;22.73;;;10.53;;
14139;SDS011;7150;53.514;9.988;2022-12-24T00:43:52;19.87;;;9.77;;
14139;SDS011;7150;53.514;9.988;2022-12-24T00:46:20;20.93;;;9.70;;
14139;SDS011;7150;53.514;9.988;2022-12-24T00:48:46;19.20;;;10.23;;
14139;SDS011;7150;53.514;9.988;2022-12-24T00:51:12;21.30;;;10.00;;
14139;SDS011;7150;53.514;9.988;2022-12-24T00:53:37;21.57;;;9.20;;
14139;SDS011;7150;53.514;9.988;2022-12-24T00:56:03;19.73;;;9.57;;
14139;SDS011;7150;53.514;9.988;2022-12-24T00:58:28;18.83;;;8.90;;
14139;SDS011;7150;53.514;9.988;2022-12-24T01:00:54;17.10;;;8.57;;
14139;SDS011;7150;53.514;9.988;2022-12-24T01:03:19;19.87;;;10.30;;
14139;SDS011;7150;53.514;9.988;2022-12-24T01:05:45;17.73;;;9.33;;
14139;SDS011;7150;53.514;9.988;2022-12-24T01:08:12;19.97;;;9.17;;
14139;SDS011;7150;53.514;9.988;2022-12-24T01:10:37;20.40;;;9.13;;
14139;SDS011;7150;53.514;9.988;2022-12-24T01:13:03;17.13;;;9.20;;
14139;SDS011;7150;53.514;9.988;2022-12-24T01:15:28;18.33;;;9.17;;
14139;SDS011;7150;53.514;9.988;2022-12-24T01:17:54;17.70;;;8.87;;
14139;SDS011;7150;53.514;9.988;2022-12-24T01:20:19;19.37;;;9.07;;
14139;SDS011;7150;53.514;9.988;2022-12-24T01:22:45;18.97;;;8.43;;
14139;SDS011;7150;53.514;9.988;2022-12-24T01:25:12;16.23;;;8.43;;
14139;SDS011;7150;53.514;9.988;2022-12-24T01:27:38;16.70;;;8.50;;
14139;SDS011;7150;53.514;9.988;2022-12-24T01:30:04;14.87;;;8.23;;
14139;SDS011;7150;53.514;9.988;2022-12-24T01:32:31;20.27;;;9.57;;
14139;SDS011;7150;53.514;9.988;2022-12-24T01:34:56;18.40;;;8.57;;
14139;SDS011;7150;53.514;9.988;2022-12-24T01:37:22;16.87;;;8.20;;
14139;SDS011;7150;53.514;9.988;2022-12-24T01:39:48;16.43;;;8.60;;
14139;SDS011;7150;53.514;9.988;2022-12-24T01:42:17;18.13;;;9.37;;
14139;SDS011;7150;53.514;9.988;2022-12-24T01:48:17;16.40;;;8.63;;
14139;SDS011;7150;53.514;9.988;2022-12-24T01:50:53;18.33;;;9.37;;
14139;SDS011;7150;53.514;9.988;2022-12-24T01:53:23;24.13;;;9.60;;
14139;SDS011;7150;53.514;9.988;2022-12-24T01:55:48;21.07;;;9.67;;
14139;SDS011;7150;53.514;9.988;2022-12-24T01:58:15;21.17;;;9.83;;
14139;SDS011;7150;53.514;9.988;2022-12-24T02:00:43;20.73;;;9.13;;
14139;SDS011;7150;53.514;9.988;2022-12-24T02:03:08;18.70;;;8.83;;
14139;SDS011;7150;53.514;9.988;2022-12-24T02:05:41;20.63;;;8.97;;
14139;SDS011;7150;53.514;9.988;2022-12-24T02:08:13;20.97;;;9.63;;
14139;SDS011;7150;53.514;9.988;2022-12-24T02:10:40;17.97;;;8.63;;
14139;SDS011;7150;53.514;9.988;2022-12-24T02:13:06;18.30;;;9.43;;
14139;SDS011;7150;53.514;9.988;2022-12-24T02:15:42;24.10;;;9.90;;
14139;SDS011;7150;53.514;9.988;2022-12-24T02:18:37;20.03;;;9.40;;
14139;SDS011;7150;53.514;9.988;2022-12-24T02:24:27;20.13;;;9.63;;
14139;SDS011;7150;53.514;9.988;2022-12-24T02:27:33;22.50;;;9.30;;
14139;SDS011;7150;53.514;9.988;2022-12-24T02:30:17;20.47;;;9.13;;
14139;SDS011;7150;53.514;9.988;2022-12-24T02:32:57;22.10;;;10.20;;
14139;SDS011;7150;53.514;9.988;2022-12-24T02:39:12;20.40;;;9.20;;
14139;SDS011;7150;53.514;9.988;2022-12-24T02:41:22;21.33;;;9.83;;
14139;SDS011;7150;53.514;9.988;2022-12-24T02:43:51;20.10;;;10.00;;
14139;SDS011;7150;53.514;9.988;2022-12-24T02:46:20;19.97;;;9.07;;
14139;SDS011;7150;53.514;9.988;2022-12-24T02:48:49;19.40;;;9.23;;
14139;SDS011;7150;53.514;9.988;2022-12-24T02:51:15;21.30;;;9.60;;
14139;SDS011;7150;53.514;9.988;2022-12-24T02:53:46;20.13;;;9.10;;
14139;SDS011;7150;53.514;9.988;2022-12-24T02:56:16;18.80;;;8.57;;
14139;SDS011;7150;53.514;9.988;2022-12-24T02:58:59;23.10;;;9.60;;
14139;SDS011;7150;53.514;9.988;2022-12-24T03:04:47;16.67;;;8.23;;
14139;SDS011;7150;53.514;9.988;2022-12-24T03:07:29;20.97;;;9.90;;
14139;SDS011;7150;53.514;9.988;2022-12-24T03:13:18;17.37;;;8.10;;
14139;SDS011;7150;53.514;9.988;2022-12-24T03:15:45;17.67;;;9.17;;
14139;SDS011;7150;53.514;9.988;2022-12-24T03:18:12;18.17;;;9.47;;
14139;SDS011;7150;53.514;9.988;2022-12-24T03:20:44;18.97;;;9.43;;
14139;SDS011;7150;53.514;9.988;2022-12-24T03:23:17;16.27;;;8.40;;
14139;SDS011;7150;53.514;9.988;2022-12-24T03:25:42;20.83;;;9.50;;
14139;SDS011;7150;53.514;9.988;2022-12-24T03:28:10;17.20;;;9.13;;
14139;SDS011;7150;53.514;9.988;2022-12-24T03:30:39;18.90;;;9.10;;
14139;SDS011;7150;53.514;9.988;2022-12-24T03:33:06;17.93;;;8.47;;
14139;SDS011;7150;53.514;9.988;2022-12-24T03:35:32;16.73;;;7.63;;
14139;SDS011;7150;53.514;9.988;2022-12-24T03:37:58;18.77;;;8.93;;
14139;SDS011;7150;53.514;9.988;2022-12-24T03:40:23;19.90;;;9.07;;
14139;SDS011;7150;53.514;9.988;2022-12-24T03:42:49;16.53;;;8.80;;
14139;SDS011;7150;53.514;9.988;2022-12-24T03:45:14;18.47;;;9.30;;
14139;SDS011;7150;53.514;9.988;2022-12-24T03:47:40;17.20;;;7.90;;
14139;SDS011;7150;53.514;9.988;2022-12-24T03:50:06;18.87;;;8.40;;
14139;SDS011;7150;53.514;9.988;2022-12-24T03:52:32;19.07;;;8.60;;
14139;SDS011;7150;53.514;9.988;2022-12-24T03:54:57;18.57;;;9.63;;
14139;SDS011;7150;53.514;9.988;2022-12-24T03:57:23;16.50;;;8.03;;
14139;SDS011;7150;53.514;9.988;2022-12-24T03:59:48;19.57;;;8.73;;
14139;SDS011;7150;53.514;9.988;2022-12-24T04:02:13;19.47;;;8.30;;
14139;SDS011;7150;53.514;9.988;2022-12-24T04:04:39;14.77;;;7.47;;
14139;SDS011;7150;53.514;9.988;2022-12-24T04:07:05;16.87;;;8.30;;
14139;SDS011;7150;53.514;9.988;2022-12-24T04:09:30;16.10;;;8.27;;
14139;SDS011;7150;53.514;9.988;2022-12-24T04:11:56;15.47;;;7.73;;
14139;SDS011;7150;53.514;9.988;2022-12-24T04:14:22;18.00;;;8.03;;
14139;SDS011;7150;53.514;9.988;2022-12-24T04:16:47;15.40;;;8.60;;
14139;SDS011;7150;53.514;9.988;2022-12-24T04:19:13;15.10;;;7.43;;
14139;SDS011;7150;53.514;9.988;2022-12-24T04:21:38;14.30;;;6.47;;
14139;SDS011;7150;53.514;9.988;2022-12-24T04:24:04;14.03;;;7.43;;
14139;SDS011;7150;53.514;9.988;2022-12-24T04:26:30;14.93;;;7.17;;
14139;SDS011;7150;53.514;9.988;2022-12-24T04:28:55;15.73;;;7.60;;
14139;SDS011;7150;53.514;9.988;2022-12-24T04:31:21;15.20;;;7.33;;
14139;SDS011;7150;53.514;9.988;2022-12-24T04:33:47;16.80;;;7.27;;
14139;SDS011;7150;53.514;9.988;2022-12-24T04:36:15;15.27;;;6.90;;
14139;SDS011;7150;53.514;9.988;2022-12-24T04:38:42;16.33;;;7.20;;
14139;SDS011;7150;53.514;9.988;2022-12-24T04:41:12;15.83;;;6.53;;
14139;SDS011;7150;53.514;9.988;2022-12-24T04:43:40;15.73;;;7.10;;
14139;SDS011;7150;53.514;9.988;2022-12-24T04:46:06;15.93;;;8.00;;
14139;SDS011;7150;53.514;9.988;2022-12-24T04:48:34;15.43;;;7.63;;
14139;SDS011;7150;53.514;9.988;2022-12-24T04:51:01;11.97;;;5.70;;
14139;SDS011;7150;53.514;9.988;2022-12-24T04:53:28;14.13;;;7.10;;
14139;SDS011;7150;53.514;9.988;2022-12-24T04:55:54;15.37;;;6.60;;
14139;SDS011;7150;53.514;9.988;2022-12-24T04:58:20;13.90;;;6.40;;
14139;SDS011;7150;53.514;9.988;2022-12-24T05:00:45;12.83;;;6.37;;
14139;SDS011;7150;53.514;9.988;2022-12-24T05:03:10;13.40;;;7.07;;
14139;SDS011;7150;53.514;9.988;2022-12-24T05:05:36;10.90;;;6.03;;
14139;SDS011;7150;53.514;9.988;2022-12-24T05:08:02;11.73;;;6.33;;
14139;SDS011;7150;53.514;9.988;2022-12-24T05:10:27;12.20;;;5.80;;
14139;SDS011;7150;53.514;9.988;2022-12-24T05:12:53;10.97;;;5.83;;
14139;SDS011;7150;53.514;9.988;2022-12-24T05:15:18;10.57;;;5.77;;
14139;SDS011;7150;53.514;9.988;2022-12-24T05:17:44;11.87;;;5.90;;
14139;SDS011;7150;53.514;9.988;2022-12-24T05:20:09;11.87;;;6.00;;
14139;SDS011;7150;53.514;9.988;2022-12-24T05:22:35;11.47;;;5.77;;
14139;SDS011;7150;53.514;9.988;2022-12-24T05:25:19;11.20;;;5.90;;
14139;SDS011;7150;53.514;9.988;2022-12-24T05:28:03;10.90;;;5.87;;
14139;SDS011;7150;53.514;9.988;2022-12-24T05:30:29;12.67;;;6.67;;
14139;SDS011;7150;53.514;9.988;2022-12-24T05:32:54;13.07;;;5.93;;
14139;SDS011;7150;53.514;9.988;2022-12-24T05:35:20;13.17;;;5.67;;
14139;SDS011;7150;53.514;9.988;2022-12-24T05:37:45;10.27;;;5.73;;
14139;SDS011;7150;53.514;9.988;2022-12-24T05:40:11;11.03;;;5.97;;
14139;SDS011;7150;53.514;9.988;2022-12-24T05:42:36;9.03;;;5.33;;
14139;SDS011;7150;53.514;9.988;2022-12-24T05:45:02;11.00;;;5.83;;
14139;SDS011;7150;53.514;9.988;2022-12-24T05:47:28;9.77;;;5.07;;
14139;SDS011;7150;53.514;9.988;2022-12-24T05:49:53;10.87;;;5.87;;
14139;SDS011;7150;53.514;9.988;2022-12-24T05:52:19;10.33;;;5.67;;
14139;SDS011;7150;53.514;9.988;2022-12-24T05:54:44;10.53;;;5.80;;
14139;SDS011;7150;53.514;9.988;2022-12-24T05:57:10;9.97;;;5.30;;
14139;SDS011;7150;53.514;9.988;2022-12-24T05:59:35;10.27;;;5.43;;
14139;SDS011;7150;53.514;9.988;2022-12-24T06:02:01;10.73;;;5.37;;
14139;SDS011;7150;53.514;9.988;2022-12-24T06:04:26;9.70;;;5.17;;
14139;SDS011;7150;53.514;9.988;2022-12-24T06:06:51;9.67;;;4.83;;
14139;SDS011;7150;53.514;9.988;2022-12-24T06:09:17;9.73;;;5.40;;
14139;SDS011;7150;53.514;9.988;2022-12-24T06:11:42;11.10;;;6.10;;
14139;SDS011;7150;53.514;9.988;2022-12-24T06:14:08;11.57;;;5.73;;
14139;SDS011;7150;53.514;9.988;2022-12-24T06:16:33;12.10;;;5.23;;
14139;SDS011;7150;53.514;9.988;2022-12-24T06:18:59;10.83;;;5.53;;
14139;SDS011;7150;53.514;9.988;2022-12-24T06:21:24;9.53;;;4.57;;
14139;SDS011;7150;53.514;9.988;2022-12-24T06:23:50;12.67;;;5.53;;
14139;SDS011;7150;53.514;9.988;2022-12-24T06:26:17;11.33;;;5.47;;
14139;SDS011;7150;53.514;9.988;2022-12-24T06:28:46;9.03;;;4.67;;
14139;SDS011;7150;53.514;9.988;2022-12-24T06:31:13;11.13;;;5.27;;
14139;SDS011;7150;53.514;9.988;2022-12-24T06:33:40;9.97;;;5.33;;
14139;SDS011;7150;53.514;9.988;2022-12-24T06:36:09;11.10;;;5.83;;
14139;SDS011;7150;53.514;9.988;2022-12-24T06:38:41;8.93;;;4.87;;
14139;SDS011;7150;53.514;9.988;2022-12-24T06:41:07;9.83;;;5.23;;
14139;SDS011;7150;53.514;9.988;2022-12-24T06:43:33;9.70;;;5.07;;
14139;SDS011;7150;53.514;9.988;2022-12-24T06:45:59;9.70;;;5.00;;
14139;SDS011;7150;53.514;9.988;2022-12-24T06:48:26;11.47;;;5.40;;
14139;SDS011;7150;53.514;9.988;2022-12-24T06:50:52;8.77;;;4.50;;
14139;SDS011;7150;53.514;9.988;2022-12-24T06:53:17;10.47;;;5.43;;
14139;SDS011;7150;53.514;9.988;2022-12-24T06:55:43;9.67;;;5.10;;
14139;SDS011;7150;53.514;9.988;2022-12-24T06:58:08;10.37;;;5.60;;
14139;SDS011;7150;53.514;9.988;2022-12-24T07:00:34;8.87;;;5.20;;
14139;SDS011;7150;53.514;9.988;2022-12-24T07:02:59;11.83;;;5.27;;
14139;SDS011;7150;53.514;9.988;2022-12-24T07:05:25;9.83;;;5.27;;
14139;SDS011;7150;53.514;9.988;2022-12-24T07:07:51;10.07;;;5.27;;
14139;SDS011;7150;53.514;9.988;2022-12-24T07:10:17;10.30;;;5.33;;
14139;SDS011;7150;53.514;9.988;2022-12-24T07:12:44;11.23;;;5.60;;
14139;SDS011;7150;53.514;9.988;2022-12-24T07:15:10;8.80;;;5.53;;
14139;SDS011;7150;53.514;9.988;2022-12-24T07:17:36;10.50;;;5.00;;
14139;SDS011;7150;53.514;9.988;2022-12-24T07:20:02;11.70;;;5.40;;
14139;SDS011;7150;53.514;9.988;2022-12-24T07:22:29;7.60;;;4.40;;
14139;SDS011;7150;53.514;9.988;2022-12-24T07:24:55;8.20;;;4.40;;
14139;SDS011;7150;53.514;9.988;2022-12-24T07:27:20;8.60;;;4.70;;
14139;SDS011;7150;53.514;9.988;2022-12-24T07:29:46;9.73;;;5.33;;
14139;SDS011;7150;53.514;9.988;2022-12-24T07:32:12;11.03;;;5.63;;
14139;SDS011;7150;53.514;9.988;2022-12-24T07:34:37;8.43;;;5.20;;
14139;SDS011;7150;53.514;9.988;2022-12-24T07:37:03;10.83;;;5.20;;
14139;SDS011;7150;53.514;9.988;2022-12-24T07:39:29;8.10;;;4.73;;
14139;SDS011;7150;53.514;9.988;2022-12-24T07:41:55;7.07;;;4.00;;
14139;SDS011;7150;53.514;9.988;2022-12-24T07:44:20;9.30;;;5.00;;
14139;SDS011;7150;53.514;9.988;2022-12-24T07:46:46;8.73;;;4.37;;
14139;SDS011;7150;53.514;9.988;2022-12-24T07:49:11;8.50;;;4.20;;
14139;SDS011;7150;53.514;9.988;2022-12-24T07:51:37;7.80;;;4.43;;
14139;SDS011;7150;53.514;9.988;2022-12-24T07:54:02;7.40;;;4.20;;
14139;SDS011;7150;53.514;9.988;2022-12-24T07:56:29;8.47;;;4.63;;
14139;SDS011;7150;53.514;9.988;2022-12-24T07:58:58;8.57;;;4.73;;
14139;SDS011;7150;53.514;9.988;2022-12-24T08:01:24;9.77;;;4.60;;
14139;SDS011;7150;53.514;9.988;2022-12-24T08:03:49;7.00;;;4.20;;
14139;SDS011;7150;53.514;9.988;2022-12-24T08:06:18;8.20;;;4.83;;
14139;SDS011;7150;53.514;9.988;2022-12-24T08:08:45;6.97;;;3.80;;
14139;SDS011;7150;53.514;9.988;2022-12-24T08:11:10;9.50;;;5.43;;
14139;SDS011;7150;53.514;9.988;2022-12-24T08:13:36;9.03;;;4.80;;
14139;SDS011;7150;53.514;9.988;2022-12-24T08:16:02;7.77;;;4.43;;
14139;SDS011;7150;53.514;9.988;2022-12-24T08:18:28;7.47;;;4.00;;
14139;SDS011;7150;53.514;9.988;2022-12-24T08:20:53;8.93;;;4.33;;
14139;SDS011;7150;53.514;9.988;2022-12-24T08:23:19;9.23;;;4.40;;
14139;SDS011;7150;53.514;9.988;2022-12-24T08:25:45;7.83;;;4.07;;
14139;SDS011;7150;53.514;9.988;2022-12-24T08:28:12;6.27;;;4.27;;
14139;SDS011;7150;53.514;9.988;2022-12-24T08:30:40;8.80;;;4.37;;
14139;SDS011;7150;53.514;9.988;2022-12-24T08:33:06;8.20;;;4.57;;
14139;SDS011;7150;53.514;9.988;2022-12-24T08:35:31;6.23;;;3.53;;
14139;SDS011;7150;53.514;9.988;2022-12-24T08:37:57;7.37;;;3.90;;
14139;SDS011;7150;53.514;9.988;2022-12-24T08:40:23;5.90;;;3.77;;
14139;SDS011;7150;53.514;9.988;2022-12-24T08:42:48;6.90;;;4.10;;
14139;SDS011;7150;53.514;9.988;2022-12-24T08:45:14;7.13;;;3.97;;
14139;SDS011;7150;53.514;9.988;2022-12-24T08:47:39;8.23;;;4.53;;
14139;SDS011;7150;53.514;9.988;2022-12-24T08:50:07;7.50;;;4.23;;
14139;SDS011;7150;53.514;9.988;2022-12-24T08:52:33;6.77;;;3.83;;
14139;SDS011;7150;53.514;9.988;2022-12-24T08:54:58;7.67;;;4.07;;
14139;SDS011;7150;53.514;9.988;2022-12-24T08:57:24;6.63;;;4.10;;
14139;SDS011;7150;53.514;9.988;2022-12-24T08:59:49;7.67;;;4.27;;
14139;SDS011;7150;53.514;9.988;2022-12-24T09:02:15;6.30;;;4.20;;
14139;SDS011;7150;53.514;9.988;2022-12-24T09:04:41;7.67;;;4.10;;
14139;SDS011;7150;53.514;9.988;2022-12-24T09:07:07;5.83;;;3.50;;
14139;SDS011;7150;53.514;9.988;2022-12-24T09:09:33;8.17;;;4.70;;
14139;SDS011;7150;53.514;9.988;2022-12-24T09:11:59;8.07;;;4.63;;
14139;SDS011;7150;53.514;9.988;2022-12-24T09:14:24;5.77;;;3.80;;
14139;SDS011;7150;53.514;9.988;2022-12-24T09:16:50;7.33;;;4.47;;
14139;SDS011;7150;53.514;9.988;2022-12-24T09:19:15;6.63;;;4.07;;
14139;SDS011;7150;53.514;9.988;2022-12-24T09:21:41;7.93;;;4.60;;
14139;SDS011;7150;53.514;9.988;2022-12-24T09:24:06;7.00;;;4.30;;
14139;SDS011;7150;53.514;9.988;2022-12-24T09:26:32;8.80;;;4.40;;
14139;SDS011;7150;53.514;9.988;2022-12-24T09:29:00;7.43;;;5.10;;
14139;SDS011;7150;53.514;9.988;2022-12-24T09:31:26;8.00;;;4.30;;
14139;SDS011;7150;53.514;9.988;2022-12-24T09:33:52;6.73;;;4.37;;
14139;SDS011;7150;53.514;9.988;2022-12-24T09:36:18;7.40;;;4.37;;
14139;SDS011;7150;53.514;9.988;2022-12-24T09:38:45;6.30;;;3.80;;
14139;SDS011;7150;53.514;9.988;2022-12-24T09:41:12;6.33;;;4.37;;
14139;SDS011;7150;53.514;9.988;2022-12-24T09:44:00;6.80;;;4.33;;
14139;SDS011;7150;53.514;9.988;2022-12-24T09:46:46;6.77;;;3.97;;
14139;SDS011;7150;53.514;9.988;2022-12-24T09:49:17;8.13;;;4.40;;
14139;SDS011;7150;53.514;9.988;2022-12-24T09:52:07;6.87;;;4.47;;
14139;SDS011;7150;53.514;9.988;2022-12-24T09:54:36;7.13;;;4.10;;
14139;SDS011;7150;53.514;9.988;2022-12-24T09:57:07;6.53;;;4.23;;
14139;SDS011;7150;53.514;9.988;2022-12-24T09:59:49;7.50;;;4.10;;
14139;SDS011;7150;53.514;9.988;2022-12-24T10:02:16;7.43;;;4.47;;
14139;SDS011;7150;53.514;9.988;2022-12-24T10:04:43;9.73;;;5.00;;
14139;SDS011;7150;53.514;9.988;2022-12-24T10:15:27;7.40;;;4.53;;
14139;SDS011;7150;53.514;9.988;2022-12-24T10:18:02;7.67;;;4.47;;
14139;SDS011;7150;53.514;9.988;2022-12-24T10:23:24;8.30;;;4.67;;
14139;SDS011;7150;53.514;9.988;2022-12-24T10:28:53;7.20;;;3.93;;
14139;SDS011;7150;53.514;9.988;2022-12-24T10:31:34;6.57;;;4.23;;
14139;SDS011;7150;53.514;9.988;2022-12-24T10:34:04;6.40;;;3.93;;
14139;SDS011;7150;53.514;9.988;2022-12-24T10:36:37;8.70;;;5.07;;
14139;SDS011;7150;53.514;9.988;2022-12-24T10:39:03;7.70;;;4.40;;
14139;SDS011;7150;53.514;9.988;2022-12-24T10:41:28;6.93;;;4.43;;
14139;SDS011;7150;53.514;9.988;2022-12-24T10:43:55;5.90;;;3.90;;
14139;SDS011;7150;53.514;9.988;2022-12-24T10:46:26;8.03;;;4.80;;
14139;SDS011;7150;53.514;9.988;2022-12-24T10:48:59;6.27;;;3.90;;
14139;SDS011;7150;53.514;9.988;2022-12-24T10:54:10;7.80;;;4.27;;
14139;SDS011;7150;53.514;9.988;2022-12-24T10:56:43;6.93;;;4.33;;
14139;SDS011;7150;53.514;9.988;2022-12-24T10:59:27;6.73;;;4.30;;
14139;SDS011;7150;53.514;9.988;2022-12-24T11:01:56;6.10;;;3.90;;
14139;SDS011;7150;53.514;9.988;2022-12-24T11:04:24;6.90;;;4.00;;
14139;SDS011;7150;53.514;9.988;2022-12-24T11:06:51;5.97;;;3.80;;
14139;SDS011;7150;53.514;9.988;2022-12-24T11:09:22;6.70;;;4.13;;
14139;SDS011;7150;53.514;9.988;2022-12-24T11:11:53;7.40;;;4.20;;
14139;SDS011;7150;53.514;9.988;2022-12-24T11:14:20;5.13;;;3.93;;
14139;SDS011;7150;53.514;9.988;2022-12-24T11:16:53;7.10;;;4.40;;
14139;SDS011;7150;53.514;9.988;2022-12-24T11:19:36;6.23;;;3.67;;
14139;SDS011;7150;53.514;9.988;2022-12-24T11:22:07;6.07;;;3.80;;
14139;SDS011;7150;53.514;9.988;2022-12-24T11:24:43;6.20;;;4.23;;
14139;SDS011;7150;53.514;9.988;2022-12-24T11:27:23;7.17;;;4.13;;
14139;SDS011;7150;53.514;9.988;2022-12-24T11:29:52;9.83;;;5.93;;
14139;SDS011;7150;53.514;9.988;2022-12-24T11:32:43;5.60;;;3.90;;
14139;SDS011;7150;53.514;9.988;2022-12-24T11:35:20;6.93;;;4.07;;
14139;SDS011;7150;53.514;9.988;2022-12-24T11:38:08;7.33;;;4.70;;
14139;SDS011;7150;53.514;9.988;2022-12-24T11:40:39;8.07;;;4.57;;
14139;SDS011;7150;53.514;9.988;2022-12-24T11:43:11;8.47;;;5.20;;
14139;SDS011;7150;53.514;9.988;2022-12-24T11:45:53;8.40;;;4.93;;
14139;SDS011;7150;53.514;9.988;2022-12-24T11:48:24;8.60;;;5.77;;
14139;SDS011;7150;53.514;9.988;2022-12-24T11:51:00;8.77;;;5.00;;
14139;SDS011;7150;53.514;9.988;2022-12-24T11:53:35;8.67;;;5.23;;
14139;SDS011;7150;53.514;9.988;2022-12-24T11:56:39;8.27;;;4.67;;
14139;SDS011;7150;53.514;9.988;2022-12-24T11:59:02;13.60;;;5.07;;
14139;SDS011;7150;53.514;9.988;2022-12-24T12:01:48;6.93;;;4.83;;
14139;SDS011;7150;53.514;9.988;2022-12-24T12:04:23;9.60;;;5.57;;
14139;SDS011;7150;53.514;9.988;2022-12-24T12:09:20;8.93;;;5.20;;
14139;SDS011;7150;53.514;9.988;2022-12-24T12:11:52;10.43;;;5.40;;
14139;SDS011;7150;53.514;9.988;2022-12-24T12:14:27;9.13;;;5.60;;
14139;SDS011;7150;53.514;9.988;2022-12-24T12:17:09;8.37;;;5.43;;
14139;SDS011;7150;53.514;9.988;2022-12-24T12:20:13;9.87;;;5.43;;
14139;SDS011;7150;53.514;9.988;2022-12-24T12:22:52;10.93;;;5.87;;
14139;SDS011;7150;53.514;9.988;2022-12-24T12:28:43;11.67;;;6.17;;
14139;SDS011;7150;53.514;9.988;2022-12-24T12:34:17;11.93;;;5.53;;
14139;SDS011;7150;53.514;9.988;2022-12-24T12:36:47;10.23;;;6.10;;
14139;SDS011;7150;53.514;9.988;2022-12-24T12:39:21;10.07;;;5.30;;
14139;SDS011;7150;53.514;9.988;2022-12-24T12:45:08;11.87;;;6.43;;
14139;SDS011;7150;53.514;9.988;2022-12-24T12:50:32;13.00;;;5.63;;
14139;SDS011;7150;53.514;9.988;2022-12-24T12:53:06;9.83;;;6.33;;
14139;SDS011;7150;53.514;9.988;2022-12-24T12:56:11;11.50;;;6.23;;
14139;SDS011;7150;53.514;9.988;2022-12-24T13:01:46;10.80;;;6.40;;
14139;SDS011;7150;53.514;9.988;2022-12-24T13:07:33;11.33;;;6.27;;
14139;SDS011;7150;53.514;9.988;2022-12-24T13:18:43;10.17;;;6.30;;
14139;SDS011;7150;53.514;9.988;2022-12-24T13:21:24;13.57;;;6.93;;
14139;SDS011;7150;53.514;9.988;2022-12-24T13:24:03;12.30;;;7.00;;
14139;SDS011;7150;53.514;9.988;2022-12-24T13:26:57;12.93;;;6.77;;
14139;SDS011;7150;53.514;9.988;2022-12-24T13:29:56;12.77;;;6.50;;
14139;SDS011;7150;53.514;9.988;2022-12-24T13:34:50;11.33;;;7.13;;
14139;SDS011;7150;53.514;9.988;2022-12-24T13:40:44;11.20;;;6.17;;
14139;SDS011;7150;53.514;9.988;2022-12-24T13:48:40;12.40;;;6.57;;
14139;SDS011;7150;53.514;9.988;2022-12-24T13:50:44;11.07;;;6.60;;
14139;SDS011;7150;53.514;9.988;2022-12-24T13:53:22;11.80;;;7.07;;
14139;SDS011;7150;53.514;9.988;2022-12-24T13:56:05;12.37;;;6.90;;
14139;SDS011;7150;53.514;9.988;2022-12-24T13:58:35;13.97;;;6.50;;
14139;SDS011;7150;53.514;9.988;2022-12-24T14:01:05;11.70;;;7.57;;
14139;SDS011;7150;53.514;9.988;2022-12-24T14:03:46;10.17;;;6.77;;
14139;SDS011;7150;53.514;9.988;2022-12-24T14:06:20;11.80;;;6.70;;
14139;SDS011;7150;53.514;9.988;2022-12-24T14:09:04;11.60;;;6.83;;
14139;SDS011;7150;53.514;9.988;2022-12-24T14:14:27;13.93;;;6.60;;
14139;SDS011;7150;53.514;9.988;2022-12-24T14:16:58;11.43;;;6.80;;
14139;SDS011;7150;53.514;9.988;2022-12-24T14:19:31;12.50;;;6.67;;
14139;SDS011;7150;53.514;9.988;2022-12-24T14:24:54;13.77;;;7.27;;
14139;SDS011;7150;53.514;9.988;2022-12-24T14:30:36;16.17;;;8.03;;
14139;SDS011;7150;53.514;9.988;2022-12-24T14:32:53;14.87;;;8.13;;
14139;SDS011;7150;53.514;9.988;2022-12-24T14:35:21;14.97;;;8.47;;
14139;SDS011;7150;53.514;9.988;2022-12-24T14:37:51;13.17;;;7.50;;
14139;SDS011;7150;53.514;9.988;2022-12-24T14:40:37;19.80;;;7.97;;
14139;SDS011;7150;53.514;9.988;2022-12-24T14:43:29;16.53;;;6.03;;
14139;SDS011;7150;53.514;9.988;2022-12-24T14:46:31;16.10;;;7.47;;
14139;SDS011;7150;53.514;9.988;2022-12-24T14:54:41;15.03;;;6.23;;
14139;SDS011;7150;53.514;9.988;2022-12-24T14:59:55;13.63;;;6.03;;
14139;SDS011;7150;53.514;9.988;2022-12-24T15:02:37;13.67;;;6.20;;
14139;SDS011;7150;53.514;9.988;2022-12-24T15:05:19;11.90;;;6.27;;
14139;SDS011;7150;53.514;9.988;2022-12-24T15:07:56;16.00;;;6.60;;
14139;SDS011;7150;53.514;9.988;2022-12-24T15:10:26;12.00;;;5.57;;
14139;SDS011;7150;53.514;9.988;2022-12-24T15:12:53;14.50;;;5.43;;
14139;SDS011;7150;53.514;9.988;2022-12-24T15:15:20;10.33;;;5.97;;
14139;SDS011;7150;53.514;9.988;2022-12-24T15:17:46;13.57;;;5.57;;
14139;SDS011;7150;53.514;9.988;2022-12-24T15:20:13;13.13;;;5.47;;
14139;SDS011;7150;53.514;9.988;2022-12-24T15:22:45;12.07;;;6.37;;
14139;SDS011;7150;53.514;9.988;2022-12-24T15:25:19;11.97;;;5.20;;
14139;SDS011;7150;53.514;9.988;2022-12-24T15:27:49;14.17;;;5.20;;
14139;SDS011;7150;53.514;9.988;2022-12-24T15:30:17;12.93;;;5.10;;
14139;SDS011;7150;53.514;9.988;2022-12-24T15:32:45;15.77;;;5.23;;
14139;SDS011;7150;53.514;9.988;2022-12-24T15:35:30;16.13;;;5.73;;
14139;SDS011;7150;53.514;9.988;2022-12-24T15:38:29;17.83;;;6.93;;
14139;SDS011;7150;53.514;9.988;2022-12-24T15:40:59;15.80;;;6.90;;
14139;SDS011;7150;53.514;9.988;2022-12-24T15:43:28;17.30;;;6.87;;
14139;SDS011;7150;53.514;9.988;2022-12-24T15:45:55;20.30;;;7.13;;
14139;SDS011;7150;53.514;9.988;2022-12-24T15:48:22;20.20;;;5.07;;
14139;SDS011;7150;53.514;9.988;2022-12-24T15:50:51;15.17;;;4.53;;
14139;SDS011;7150;53.514;9.988;2022-12-24T15:53:36;20.73;;;4.87;;
14139;SDS011;7150;53.514;9.988;2022-12-24T15:56:10;13.97;;;3.90;;
14139;SDS011;7150;53.514;9.988;2022-12-24T15:58:39;17.07;;;5.23;;
14139;SDS011;7150;53.514;9.988;2022-12-24T16:03:56;20.63;;;5.50;;
14139;SDS011;7150;53.514;9.988;2022-12-24T16:06:23;18.57;;;5.23;;
14139;SDS011;7150;53.514;9.988;2022-12-24T16:08:49;13.03;;;4.43;;
14139;SDS011;7150;53.514;9.988;2022-12-24T16:11:20;17.13;;;5.57;;
14139;SDS011;7150;53.514;9.988;2022-12-24T16:16:39;12.63;;;4.37;;
14139;SDS011;7150;53.514;9.988;2022-12-24T16:19:14;13.43;;;4.77;;
14139;SDS011;7150;53.514;9.988;2022-12-24T16:21:42;18.37;;;4.60;;
14139;SDS011;7150;53.514;9.988;2022-12-24T16:24:19;10.53;;;4.93;;
14139;SDS011;7150;53.514;9.988;2022-12-24T16:26:51;16.00;;;5.60;;
14139;SDS011;7150;53.514;9.988;2022-12-24T16:29:17;12.17;;;5.20;;
14139;SDS011;7150;53.514;9.988;2022-12-24T16:34:16;20.83;;;6.20;;
14139;SDS011;7150;53.514;9.988;2022-12-24T16:36:42;17.17;;;5.57;;
14139;SDS011;7150;53.514;9.988;2022-12-24T16:39:10;18.27;;;7.00;;
14139;SDS011;7150;53.514;9.988;2022-12-24T16:41:51;19.40;;;7.30;;
14139;SDS011;7150;53.514;9.988;2022-12-24T16:44:39;26.47;;;7.07;;
14139;SDS011;7150;53.514;9.988;2022-12-24T16:47:06;24.00;;;7.20;;
14139;SDS011;7150;53.514;9.988;2022-12-24T16:49:39;23.03;;;6.43;;
14139;SDS011;7150;53.514;9.988;2022-12-24T16:52:06;25.67;;;7.37;;
14139;SDS011;7150;53.514;9.988;2022-12-24T16:54:38;21.93;;;6.87;;